Evergreen, Louisiana
Current Conditions -  °F | °C
As of 2:55 PM on Tuesday 27 Jan 2015 (Local Time) from KOPL Reporting Station
Clear Clear  
Wind Chill: 74°   Ceiling: Unl
Heat Index: 74°   Visibility: 10mi
Dew Point: 38°   Wind: 7mph
Humidity: 28%   Direction: 340°NNW
Pressure: 30.1"   Gusts: NA
Location:  30.95°N, 92.11°W
Report Text: KOPL 272055Z AUTO 34006KT 10SM CLR 23/04 A3010 RMK AO2 T02310036
Loading
Personal Weather Stations






























Interactive Weather Map New forecast layout! Learn more

10-Day Weather Forecast

Advertisements
Track Severe Weather on mobile